createdAt,value
2022-12-22T00:00:32.920Z,45.50
2022-12-22T00:03:27.170Z,44.55
2022-12-22T00:06:17.774Z,46.40
2022-12-22T00:09:08.356Z,143.13
2022-12-22T00:11:58.717Z,59.33
2022-12-22T00:14:48.991Z,50.15
2022-12-22T00:17:47.066Z,48.78
2022-12-22T00:20:39.128Z,48.08
2022-12-22T00:23:30.488Z,47.73
2022-12-22T00:26:21.087Z,49.30
2022-12-22T00:29:11.850Z,48.42
2022-12-22T00:32:02.228Z,47.15
2022-12-22T00:34:58.995Z,49.67
2022-12-22T00:37:52.977Z,46.63
2022-12-22T00:40:46.620Z,43.20
2022-12-22T00:43:37.081Z,47.88
2022-12-22T00:46:28.892Z,49.58
2022-12-22T00:49:19.404Z,44.85
2022-12-22T00:52:09.800Z,47.95
2022-12-22T00:54:59.983Z,47.75
2022-12-22T00:57:50.798Z,47.70
2022-12-22T01:00:41.085Z,48.87
2022-12-22T01:03:31.746Z,49.75
2022-12-22T01:06:22.992Z,44.55
2022-12-22T01:09:13.378Z,45.23
2022-12-22T01:12:03.710Z,46.35
2022-12-22T01:14:54.776Z,43.23
2022-12-22T01:17:45.977Z,43.10
2022-12-22T01:20:36.487Z,52.13
2022-12-22T01:23:29.512Z,46.35
2022-12-22T01:26:20.586Z,46.68
2022-12-22T01:29:11.275Z,46.55
2022-12-22T01:32:05.148Z,49.15
2022-12-22T01:34:58.776Z,49.20
2022-12-22T01:37:51.832Z,50.17
2022-12-22T01:40:43.881Z,51.55
2022-12-22T01:43:46.754Z,49.50
2022-12-22T01:46:47.139Z,43.52
2022-12-22T01:49:49.722Z,53.05
2022-12-22T01:52:43.825Z,47.70
2022-12-22T01:55:36.753Z,51.40
2022-12-22T01:58:35.605Z,46.08
2022-12-22T02:01:26.329Z,45.58
2022-12-22T02:04:16.814Z,45.45
2022-12-22T02:07:07.662Z,48.60
2022-12-22T02:10:31.848Z,46.83
2022-12-22T02:13:50.036Z,47.13
2022-12-22T02:16:56.445Z,49.60
2022-12-22T02:20:11.957Z,43.52
2022-12-22T02:23:30.793Z,46.80
2022-12-22T02:26:50.547Z,46.88
2022-12-22T02:29:45.257Z,44.67
2022-12-22T02:32:37.020Z,42.62
2022-12-22T02:35:33.232Z,42.65
2022-12-22T02:38:46.426Z,49.25
2022-12-22T02:48:03.494Z,45.40
2022-12-22T02:51:03.303Z,39.90
2022-12-22T02:53:53.951Z,46.45
2022-12-22T02:56:44.710Z,42.85
2022-12-22T02:59:35.035Z,47.93
2022-12-22T03:02:25.047Z,48.28
2022-12-22T03:05:15.645Z,43.10
2022-12-22T03:08:08.592Z,45.25
2022-12-22T03:10:58.156Z,46.70
2022-12-22T03:13:48.684Z,42.53
2022-12-22T03:16:38.802Z,46.20
2022-12-22T03:19:29.221Z,46.75
2022-12-22T03:22:19.449Z,43.52
2022-12-22T03:25:09.777Z,50.48
2022-12-22T03:27:42.158Z,51.13
2022-12-22T03:30:14.726Z,39.53
2022-12-22T03:32:47.153Z,42.48
2022-12-22T03:35:19.514Z,40.88
2022-12-22T03:37:52.146Z,44.50
2022-12-22T03:40:25.092Z,44.30
2022-12-22T03:43:15.464Z,43.28
2022-12-22T03:46:06.208Z,44.77
2022-12-22T03:48:38.737Z,41.37
2022-12-22T03:51:12.783Z,43.40
2022-12-22T03:53:45.436Z,47.55
2022-12-22T03:56:17.992Z,43.10
2022-12-22T03:58:51.035Z,46.75
2022-12-22T04:01:23.509Z,43.58
2022-12-22T04:03:56.124Z,46.77
2022-12-22T04:06:28.633Z,48.65
2022-12-22T04:09:01.448Z,46.28
2022-12-22T04:11:51.618Z,46.63
2022-12-22T04:14:28.089Z,45.58
2022-12-22T04:16:58.570Z,41.85
2022-12-22T04:19:31.473Z,42.85
2022-12-22T04:25:00.365Z,43.02
2022-12-22T04:27:33.170Z,42.17
2022-12-22T04:30:07.642Z,45.03
2022-12-22T04:32:40.524Z,46.68
2022-12-22T04:35:13.095Z,47.25
2022-12-22T04:37:45.676Z,49.80
2022-12-22T04:40:18.416Z,50.05
2022-12-22T04:42:51.003Z,50.78
2022-12-22T04:45:23.933Z,47.13
2022-12-22T04:47:56.360Z,42.58
2022-12-22T04:50:28.859Z,47.50
2022-12-22T04:53:01.618Z,47.73
2022-12-22T04:55:34.108Z,51.37
2022-12-22T04:58:07.099Z,42.67
2022-12-22T05:00:39.756Z,51.28
2022-12-22T05:03:12.371Z,46.63
2022-12-22T05:05:44.902Z,47.85
2022-12-22T05:08:17.377Z,44.27
2022-12-22T05:10:50.196Z,47.90
2022-12-22T05:13:22.609Z,51.65
2022-12-22T05:15:55.085Z,48.08
2022-12-22T05:18:27.481Z,43.48
2022-12-22T05:21:00.435Z,50.05
2022-12-22T05:23:33.392Z,46.73
2022-12-22T05:26:06.150Z,46.58
2022-12-22T05:28:39.352Z,50.15
2022-12-22T05:31:18.178Z,50.28
2022-12-22T05:33:51.217Z,47.67
2022-12-22T05:36:30.710Z,48.35
2022-12-22T05:39:07.546Z,48.83
2022-12-22T05:41:45.223Z,50.05
2022-12-22T05:44:17.851Z,52.30
2022-12-22T05:46:55.188Z,49.48
2022-12-22T05:49:27.638Z,44.95
2022-12-22T05:52:00.090Z,42.65
2022-12-22T05:54:33.321Z,49.60
2022-12-22T05:57:05.786Z,45.50
2022-12-22T05:59:38.273Z,48.00
2022-12-22T06:02:11.059Z,45.50
2022-12-22T06:04:44.047Z,50.63
2022-12-22T06:07:17.118Z,51.05
2022-12-22T06:09:49.625Z,49.20
2022-12-22T06:12:22.147Z,49.33
2022-12-22T06:14:55.550Z,50.38
2022-12-22T06:17:28.011Z,47.83
2022-12-22T06:20:01.534Z,52.33
2022-12-22T06:22:35.400Z,50.15
2022-12-22T06:25:10.922Z,59.00
2022-12-22T06:27:42.684Z,54.88
2022-12-22T06:30:16.983Z,55.10
2022-12-22T06:32:49.578Z,54.85
2022-12-22T06:35:22.213Z,60.33
2022-12-22T06:37:55.137Z,58.73
2022-12-22T06:40:27.981Z,54.38
2022-12-22T06:43:10.337Z,55.67
2022-12-22T06:45:44.641Z,64.10
2022-12-22T06:48:17.256Z,53.02
2022-12-22T06:50:50.060Z,58.63
2022-12-22T06:53:22.610Z,57.38
2022-12-22T06:55:55.045Z,59.50
2022-12-22T06:58:27.561Z,54.50
2022-12-22T07:01:00.195Z,58.63
2022-12-22T07:03:35.188Z,55.20
2022-12-22T07:06:08.599Z,56.92
2022-12-22T07:08:42.480Z,53.25
2022-12-22T07:11:15.503Z,52.60
2022-12-22T07:13:49.392Z,57.13
2022-12-22T07:16:22.575Z,54.13
2022-12-22T07:18:55.327Z,52.45
2022-12-22T07:21:28.044Z,60.12
2022-12-22T07:24:00.772Z,54.67
2022-12-22T07:26:33.696Z,56.53
2022-12-22T07:29:06.542Z,50.33
2022-12-22T07:31:39.533Z,56.40
2022-12-22T07:34:11.922Z,59.15
2022-12-22T07:36:44.836Z,58.75
2022-12-22T07:39:17.990Z,59.93
2022-12-22T07:42:08.404Z,59.15
2022-12-22T07:44:42.433Z,56.13
2022-12-22T07:47:15.546Z,54.90
2022-12-22T07:50:05.780Z,53.58
2022-12-22T07:52:38.592Z,54.67
2022-12-22T07:55:11.531Z,62.95
2022-12-22T07:57:44.229Z,53.00
2022-12-22T08:00:17.898Z,56.08
2022-12-22T08:02:58.007Z,59.13
2022-12-22T08:05:30.888Z,60.60
2022-12-22T08:08:03.378Z,57.17
2022-12-22T08:10:36.389Z,64.37
2022-12-22T08:13:17.540Z,60.28
2022-12-22T08:15:52.697Z,61.37
2022-12-22T08:18:25.875Z,63.92
2022-12-22T08:20:59.044Z,62.00
2022-12-22T08:23:31.658Z,60.88
2022-12-22T08:26:21.559Z,53.87
2022-12-22T08:29:37.532Z,51.63
2022-12-22T08:32:10.989Z,60.73
2022-12-22T08:34:43.551Z,59.18
2022-12-22T08:37:17.221Z,54.48
2022-12-22T08:39:53.629Z,56.23
2022-12-22T08:42:26.122Z,54.77
2022-12-22T08:44:59.042Z,57.90
2022-12-22T08:47:31.727Z,58.87
2022-12-22T08:50:05.014Z,65.78
2022-12-22T08:52:38.030Z,56.65
2022-12-22T08:55:11.158Z,55.95
2022-12-22T08:57:43.988Z,61.10
2022-12-22T09:00:17.876Z,61.30
2022-12-22T09:02:50.442Z,62.70
2022-12-22T09:05:23.379Z,64.00
2022-12-22T09:07:56.331Z,64.30
2022-12-22T09:10:28.886Z,62.95
2022-12-22T09:13:01.691Z,58.23
2022-12-22T09:15:34.485Z,56.80
2022-12-22T09:18:07.109Z,60.67
2022-12-22T09:20:39.652Z,55.45
2022-12-22T09:23:12.417Z,56.85
2022-12-22T09:25:45.075Z,59.45
2022-12-22T09:28:17.899Z,56.37
2022-12-22T09:30:55.042Z,63.28
2022-12-22T09:33:27.935Z,56.58
2022-12-22T09:36:00.864Z,62.00
2022-12-22T09:38:35.903Z,62.75
2022-12-22T09:41:35.045Z,59.00
2022-12-22T09:44:14.188Z,58.58
2022-12-22T09:46:46.842Z,56.00
2022-12-22T09:49:19.935Z,61.53
2022-12-22T09:51:57.325Z,57.20
2022-12-22T09:54:30.307Z,65.90
2022-12-22T09:57:02.718Z,58.95
2022-12-22T09:59:35.289Z,52.93
2022-12-22T10:02:37.910Z,56.68
2022-12-22T10:05:41.311Z,63.35
2022-12-22T10:08:22.760Z,59.33
2022-12-22T10:10:56.232Z,61.73
2022-12-22T10:13:28.643Z,59.10
2022-12-22T10:16:01.351Z,58.63
2022-12-22T10:18:35.570Z,56.77
2022-12-22T10:21:13.228Z,58.33
2022-12-22T10:23:47.831Z,55.92
2022-12-22T10:26:30.831Z,55.78
2022-12-22T10:29:14.624Z,62.48
2022-12-22T10:32:08.339Z,57.73
2022-12-22T10:35:02.746Z,57.15
2022-12-22T10:37:38.893Z,64.58
2022-12-22T10:40:20.554Z,58.00
2022-12-22T10:42:55.994Z,61.45
2022-12-22T10:45:28.941Z,58.08
2022-12-22T10:48:01.416Z,56.48
2022-12-22T10:50:35.371Z,61.48
2022-12-22T10:53:08.058Z,56.42
2022-12-22T10:55:40.525Z,54.67
2022-12-22T10:58:21.942Z,58.92
2022-12-22T11:01:06.283Z,58.85
2022-12-22T11:03:39.204Z,53.00
2022-12-22T11:06:13.974Z,55.98
2022-12-22T11:08:51.618Z,60.43
2022-12-22T11:14:21.495Z,55.88
2022-12-22T11:17:08.284Z,57.90
2022-12-22T11:20:14.993Z,57.58
2022-12-22T11:23:23.806Z,50.17
2022-12-22T11:26:20.390Z,48.23
2022-12-22T11:29:23.879Z,56.40
2022-12-22T11:32:24.850Z,53.80
2022-12-22T11:35:53.671Z,57.75
2022-12-22T11:38:52.692Z,50.85
2022-12-22T11:42:00.798Z,56.70
2022-12-22T11:45:02.326Z,58.80
2022-12-22T11:47:58.087Z,60.33
2022-12-22T11:51:01.472Z,58.00
2022-12-22T11:53:47.055Z,55.00
2022-12-22T11:56:43.382Z,56.95
2022-12-22T11:59:33.346Z,56.20
2022-12-22T12:02:34.071Z,50.25
2022-12-22T12:05:18.974Z,50.20
2022-12-22T12:08:26.584Z,55.63
2022-12-22T12:11:16.169Z,49.90
2022-12-22T12:14:05.546Z,44.58
2022-12-22T12:17:16.807Z,64.17
2022-12-22T12:20:24.562Z,55.28
2022-12-22T12:23:41.148Z,54.40
2022-12-22T12:26:33.350Z,54.20
2022-12-22T12:29:20.181Z,57.70
2022-12-22T12:32:12.830Z,52.65
2022-12-22T12:34:48.905Z,61.02
2022-12-22T12:37:34.274Z,58.95
2022-12-22T12:40:32.672Z,60.98
2022-12-22T12:43:08.534Z,60.28
2022-12-22T12:45:42.972Z,65.05
2022-12-22T12:48:30.239Z,59.45
2022-12-22T12:51:03.795Z,66.40
2022-12-22T12:53:36.415Z,59.60
2022-12-22T12:56:10.688Z,64.05
2022-12-22T12:58:48.508Z,63.28
2022-12-22T13:01:32.144Z,57.93
2022-12-22T13:04:06.185Z,62.25
2022-12-22T13:06:54.757Z,67.40
2022-12-22T13:12:45.863Z,63.02
2022-12-22T13:15:39.240Z,60.08
2022-12-22T13:18:31.909Z,59.85
2022-12-22T13:24:28.510Z,68.47
2022-12-22T13:26:55.393Z,67.20
2022-12-22T13:30:11.138Z,62.65
2022-12-22T13:32:38.904Z,61.63
2022-12-22T13:35:46.622Z,66.40
2022-12-22T13:38:37.855Z,66.02
2022-12-22T13:41:26.590Z,72.25
2022-12-22T13:43:59.665Z,69.47
2022-12-22T13:46:36.294Z,72.00
2022-12-22T13:49:11.838Z,73.42
2022-12-22T13:51:47.572Z,74.00
2022-12-22T13:54:31.293Z,75.92
2022-12-22T13:57:06.659Z,79.65
2022-12-22T14:02:17.293Z,77.73
2022-12-22T14:05:11.308Z,76.28
2022-12-22T14:08:03.827Z,81.85
2022-12-22T14:10:51.069Z,82.02
2022-12-22T14:13:30.301Z,80.15
2022-12-22T14:16:05.721Z,79.90
2022-12-22T14:18:39.133Z,78.83
2022-12-22T14:21:11.960Z,78.83
2022-12-22T14:23:49.082Z,87.37
2022-12-22T14:26:25.337Z,77.72
2022-12-22T14:28:59.061Z,77.60
2022-12-22T14:31:31.685Z,76.37
2022-12-22T14:34:05.674Z,67.82
2022-12-22T14:39:16.718Z,74.97
2022-12-22T14:41:55.909Z,73.37
2022-12-22T14:44:46.610Z,69.27
2022-12-22T14:47:22.721Z,70.40
2022-12-22T14:50:26.248Z,64.17
2022-12-22T14:53:03.384Z,64.10
2022-12-22T14:55:43.182Z,65.85
2022-12-22T14:58:21.378Z,67.00
2022-12-22T15:01:23.600Z,71.20
2022-12-22T15:04:04.438Z,69.67
2022-12-22T15:06:41.638Z,62.95
2022-12-22T15:09:47.125Z,61.28
2022-12-22T15:11:59.775Z,66.95
2022-12-22T15:14:38.662Z,71.00
2022-12-22T15:17:33.944Z,65.30
2022-12-22T15:20:11.305Z,64.15
2022-12-22T15:22:45.118Z,62.95
2022-12-22T15:25:24.742Z,61.70
2022-12-22T15:27:57.632Z,62.05
2022-12-22T15:30:30.571Z,63.23
2022-12-22T15:33:03.351Z,61.83
2022-12-22T15:35:36.790Z,64.47
2022-12-22T15:38:39.216Z,66.75
2022-12-22T15:41:32.780Z,65.92
2022-12-22T15:44:18.316Z,66.67
2022-12-22T15:46:56.061Z,69.70
2022-12-22T15:49:30.301Z,67.40
2022-12-22T15:52:03.873Z,68.35
2022-12-22T15:54:37.797Z,72.53
2022-12-22T15:57:14.346Z,71.42
2022-12-22T15:59:48.631Z,74.03
2022-12-22T16:02:21.394Z,70.15
2022-12-22T16:04:54.330Z,75.95
2022-12-22T16:07:27.257Z,76.87
2022-12-22T16:09:59.900Z,72.90
2022-12-22T16:12:35.125Z,74.22
2022-12-22T16:15:11.632Z,74.05
2022-12-22T16:17:44.527Z,70.78
2022-12-22T16:20:17.114Z,65.08
2022-12-22T16:22:51.769Z,63.60
2022-12-22T16:25:49.799Z,69.77
2022-12-22T16:28:31.741Z,65.83
2022-12-22T16:31:07.743Z,65.37
2022-12-22T16:33:40.684Z,66.60
2022-12-22T16:36:13.199Z,69.17
2022-12-22T16:38:50.557Z,63.48
2022-12-22T16:41:28.814Z,66.55
2022-12-22T16:50:02.039Z,58.75
2022-12-22T16:52:40.481Z,68.10
2022-12-22T16:55:22.408Z,63.73
2022-12-22T16:57:56.319Z,70.65
2022-12-22T17:00:31.511Z,69.82
2022-12-22T17:03:22.487Z,70.20
2022-12-22T17:06:24.239Z,60.12
2022-12-22T17:08:59.256Z,61.48
2022-12-22T17:11:35.432Z,61.23
2022-12-22T17:14:25.676Z,63.15
2022-12-22T17:16:59.904Z,59.75
2022-12-22T17:19:33.055Z,71.40
2022-12-22T17:22:07.167Z,63.38
2022-12-22T17:24:40.347Z,60.33
2022-12-22T17:27:15.955Z,63.65
2022-12-22T17:29:48.821Z,65.90
2022-12-22T17:32:22.655Z,68.62
2022-12-22T17:34:55.659Z,69.12
2022-12-22T17:37:28.775Z,66.67
2022-12-22T17:40:02.813Z,63.95
2022-12-22T17:42:35.445Z,66.95
2022-12-22T17:45:11.815Z,61.33
2022-12-22T17:47:44.753Z,68.30
2022-12-22T17:50:19.517Z,70.67
2022-12-22T17:52:52.293Z,66.28
2022-12-22T17:56:06.504Z,66.45
2022-12-22T17:58:03.882Z,70.17
2022-12-22T18:00:36.650Z,70.25
2022-12-22T18:03:11.676Z,69.47
2022-12-22T18:05:48.450Z,68.45
2022-12-22T18:08:21.694Z,68.33
2022-12-22T18:10:54.175Z,70.32
2022-12-22T18:13:27.237Z,65.52
2022-12-22T18:15:59.677Z,71.87
2022-12-22T18:18:32.548Z,65.32
2022-12-22T18:21:06.422Z,69.72
2022-12-22T18:23:43.235Z,68.80
2022-12-22T18:26:31.395Z,68.62
2022-12-22T18:29:04.342Z,74.12
2022-12-22T18:31:37.324Z,65.72
2022-12-22T18:34:09.762Z,70.45
2022-12-22T18:36:44.176Z,74.42
2022-12-22T18:39:22.595Z,81.82
2022-12-22T18:41:56.348Z,75.90
2022-12-22T18:44:29.045Z,79.20
2022-12-22T18:47:01.978Z,68.60
2022-12-22T18:49:35.134Z,80.83
2022-12-22T18:52:22.145Z,75.97
2022-12-22T18:54:55.062Z,82.47
2022-12-22T18:57:27.830Z,84.58
2022-12-22T19:00:01.622Z,86.85
2022-12-22T19:02:34.798Z,83.10
2022-12-22T19:05:38.073Z,81.70
2022-12-22T19:08:23.547Z,87.67
2022-12-22T19:11:16.244Z,89.13
2022-12-22T19:13:51.429Z,79.42
2022-12-22T19:16:36.070Z,73.52
2022-12-22T19:21:54.769Z,84.47
2022-12-22T19:24:28.908Z,82.72
2022-12-22T19:29:36.014Z,85.97
2022-12-22T19:32:14.522Z,81.57
2022-12-22T19:34:49.622Z,80.72
2022-12-22T19:37:22.604Z,83.40
2022-12-22T19:39:56.291Z,78.30
2022-12-22T19:42:29.138Z,85.40
2022-12-22T19:45:08.412Z,80.75
2022-12-22T19:47:37.557Z,81.32
2022-12-22T19:50:20.407Z,79.32
2022-12-22T19:52:53.669Z,84.32
2022-12-22T19:55:26.545Z,82.65
2022-12-22T19:57:58.919Z,79.50
2022-12-22T20:00:32.146Z,88.37
2022-12-22T20:03:06.434Z,79.17
2022-12-22T20:05:39.251Z,82.82
2022-12-22T20:08:12.388Z,80.15
2022-12-22T20:10:45.394Z,85.55
2022-12-22T20:13:21.713Z,76.57
2022-12-22T20:15:54.832Z,79.27
2022-12-22T20:18:30.639Z,77.90
2022-12-22T20:21:28.336Z,74.45
2022-12-22T20:24:01.990Z,81.60
2022-12-22T20:26:35.102Z,78.85
2022-12-22T20:29:07.627Z,80.03
2022-12-22T20:31:40.240Z,78.72
2022-12-22T20:34:12.627Z,77.78
2022-12-22T20:36:45.420Z,87.00
2022-12-22T20:39:20.112Z,80.80
2022-12-22T20:41:53.799Z,82.35
2022-12-22T20:44:28.243Z,79.65
2022-12-22T20:47:00.833Z,78.47
2022-12-22T20:49:34.344Z,87.67
2022-12-22T20:52:07.560Z,81.80
2022-12-22T20:54:39.990Z,84.52
2022-12-22T20:57:15.117Z,81.12
2022-12-22T20:59:55.752Z,88.85
2022-12-22T21:02:28.161Z,82.37
2022-12-22T21:05:01.643Z,90.12
2022-12-22T21:07:34.182Z,90.80
2022-12-22T21:10:07.576Z,83.67
2022-12-22T21:12:40.788Z,83.00
2022-12-22T21:15:22.986Z,90.65
2022-12-22T21:17:58.415Z,88.90
2022-12-22T21:20:31.818Z,86.75
2022-12-22T21:23:04.285Z,79.07
2022-12-22T21:25:39.676Z,84.92
2022-12-22T21:28:10.932Z,83.45
2022-12-22T21:30:43.646Z,86.10
2022-12-22T21:33:16.043Z,85.05
2022-12-22T21:35:48.787Z,88.90
2022-12-22T21:38:23.302Z,80.77
2022-12-22T21:40:55.807Z,81.70
2022-12-22T21:43:28.315Z,84.17
2022-12-22T21:46:01.455Z,82.57
2022-12-22T21:51:07.315Z,83.25
2022-12-22T21:53:39.731Z,86.40
2022-12-22T21:56:19.700Z,77.50
2022-12-22T21:58:52.442Z,82.27
2022-12-22T22:01:26.677Z,78.05
2022-12-22T22:03:59.976Z,83.80
2022-12-22T22:06:32.880Z,77.92
2022-12-22T22:09:07.419Z,80.40
2022-12-22T22:11:41.765Z,89.60
2022-12-22T22:14:14.234Z,87.17
2022-12-22T22:16:47.641Z,82.27
2022-12-22T22:19:20.204Z,83.42
2022-12-22T22:21:52.782Z,88.33
2022-12-22T22:24:25.197Z,88.00
2022-12-22T22:26:58.128Z,85.65
2022-12-22T22:29:30.698Z,79.15
2022-12-22T22:32:03.344Z,77.15
2022-12-22T22:34:35.884Z,82.62
2022-12-22T22:37:09.069Z,79.37
2022-12-22T22:39:41.430Z,82.80
2022-12-22T22:42:13.891Z,76.25
2022-12-22T22:44:46.662Z,75.62
2022-12-22T22:47:19.381Z,75.47
2022-12-22T22:49:51.993Z,80.65
2022-12-22T22:52:24.404Z,79.67
2022-12-22T22:54:57.153Z,79.72
2022-12-22T22:57:30.138Z,78.50
2022-12-22T23:00:02.714Z,74.27
2022-12-22T23:02:35.777Z,74.05
2022-12-22T23:05:08.787Z,80.17
2022-12-22T23:07:41.886Z,67.30
2022-12-22T23:10:14.935Z,67.30
2022-12-22T23:12:47.384Z,68.15
2022-12-22T23:15:19.980Z,70.90
2022-12-22T23:17:53.709Z,64.22
2022-12-22T23:20:26.400Z,76.12
2022-12-22T23:22:58.803Z,69.45
2022-12-22T23:25:31.365Z,64.65
2022-12-22T23:28:03.963Z,73.57
2022-12-22T23:30:41.476Z,64.05
2022-12-22T23:33:14.312Z,68.47
2022-12-22T23:35:49.342Z,62.78
2022-12-22T23:38:22.551Z,63.35
2022-12-22T23:40:59.608Z,57.00
2022-12-22T23:43:32.116Z,66.35
2022-12-22T23:46:28.677Z,62.17
2022-12-22T23:49:01.624Z,61.13
2022-12-22T23:51:34.620Z,61.35
2022-12-22T23:54:07.455Z,64.12
2022-12-22T23:56:39.900Z,57.98
2022-12-22T23:59:12.345Z,66.97
